sensor_id;sensor_type;location;lat;lon;timestamp;temperature;humidity
67868;SHT31;54672;46.096;14.470;2023-04-01T00:01:57;7.39;98.23
67868;SHT31;54672;46.096;14.470;2023-04-01T00:04:23;7.36;98.14
67868;SHT31;54672;46.096;14.470;2023-04-01T00:06:48;7.35;98.10
67868;SHT31;54672;46.096;14.470;2023-04-01T00:09:14;7.32;98.10
67868;SHT31;54672;46.096;14.470;2023-04-01T00:11:40;7.27;97.97
67868;SHT31;54672;46.096;14.470;2023-04-01T00:14:06;7.22;97.85
67868;SHT31;54672;46.096;14.470;2023-04-01T00:16:32;7.23;97.80
67868;SHT31;54672;46.096;14.470;2023-04-01T00:18:57;7.16;97.58
67868;SHT31;54672;46.096;14.470;2023-04-01T00:21:23;7.14;97.45
67868;SHT31;54672;46.096;14.470;2023-04-01T00:23:50;7.08;97.64
67868;SHT31;54672;46.096;14.470;2023-04-01T00:26:15;7.05;97.83
67868;SHT31;54672;46.096;14.470;2023-04-01T00:28:44;7.02;97.84
67868;SHT31;54672;46.096;14.470;2023-04-01T00:31:10;7.01;98.02
67868;SHT31;54672;46.096;14.470;2023-04-01T00:33:36;6.98;98.06
67868;SHT31;54672;46.096;14.470;2023-04-01T00:36:13;6.92;98.13
67868;SHT31;54672;46.096;14.470;2023-04-01T00:38:39;6.89;98.10
67868;SHT31;54672;46.096;14.470;2023-04-01T00:41:05;6.87;98.06
67868;SHT31;54672;46.096;14.470;2023-04-01T00:43:31;6.81;98.12
67868;SHT31;54672;46.096;14.470;2023-04-01T00:45:57;6.77;98.01
67868;SHT31;54672;46.096;14.470;2023-04-01T00:48:26;6.71;98.02
67868;SHT31;54672;46.096;14.470;2023-04-01T00:51:14;6.67;98.01
67868;SHT31;54672;46.096;14.470;2023-04-01T00:53:43;6.63;98.03
67868;SHT31;54672;46.096;14.470;2023-04-01T00:56:13;6.57;98.17
67868;SHT31;54672;46.096;14.470;2023-04-01T00:58:44;6.54;98.30
67868;SHT31;54672;46.096;14.470;2023-04-01T01:01:12;6.53;98.18
67868;SHT31;54672;46.096;14.470;2023-04-01T01:03:37;6.51;98.07
67868;SHT31;54672;46.096;14.470;2023-04-01T01:09:13;6.48;97.55
67868;SHT31;54672;46.096;14.470;2023-04-01T01:17:12;6.45;97.97
67868;SHT31;54672;46.096;14.470;2023-04-01T01:20:10;6.44;97.55
67868;SHT31;54672;46.096;14.470;2023-04-01T01:34:16;6.22;98.30
67868;SHT31;54672;46.096;14.470;2023-04-01T01:36:45;6.19;98.46
67868;SHT31;54672;46.096;14.470;2023-04-01T01:39:14;6.23;98.58
67868;SHT31;54672;46.096;14.470;2023-04-01T01:41:42;6.23;98.58
67868;SHT31;54672;46.096;14.470;2023-04-01T01:44:09;6.24;98.44
67868;SHT31;54672;46.096;14.470;2023-04-01T01:46:38;6.23;98.48
67868;SHT31;54672;46.096;14.470;2023-04-01T01:49:05;6.20;98.43
67868;SHT31;54672;46.096;14.470;2023-04-01T01:51:32;6.17;98.44
67868;SHT31;54672;46.096;14.470;2023-04-01T01:53:57;6.17;98.35
67868;SHT31;54672;46.096;14.470;2023-04-01T01:56:26;6.16;98.26
67868;SHT31;54672;46.096;14.470;2023-04-01T01:59:06;6.13;98.22
67868;SHT31;54672;46.096;14.470;2023-04-01T02:01:37;6.13;98.19
67868;SHT31;54672;46.096;14.470;2023-04-01T02:04:04;6.15;98.39
67868;SHT31;54672;46.096;14.470;2023-04-01T02:06:32;6.15;98.37
67868;SHT31;54672;46.096;14.470;2023-04-01T02:09:05;6.17;98.43
67868;SHT31;54672;46.096;14.470;2023-04-01T02:11:42;6.16;98.27
67868;SHT31;54672;46.096;14.470;2023-04-01T02:14:13;6.15;98.39
67868;SHT31;54672;46.096;14.470;2023-04-01T02:19:13;6.13;98.28
67868;SHT31;54672;46.096;14.470;2023-04-01T02:21:40;6.13;98.35
67868;SHT31;54672;46.096;14.470;2023-04-01T02:24:10;6.10;98.30
67868;SHT31;54672;46.096;14.470;2023-04-01T02:26:37;6.09;98.28
67868;SHT31;54672;46.096;14.470;2023-04-01T02:29:05;6.06;98.30
67868;SHT31;54672;46.096;14.470;2023-04-01T02:31:31;6.06;98.29
67868;SHT31;54672;46.096;14.470;2023-04-01T02:33:57;6.01;98.19
67868;SHT31;54672;46.096;14.470;2023-04-01T02:36:23;5.93;98.17
67868;SHT31;54672;46.096;14.470;2023-04-01T02:38:49;5.89;98.28
67868;SHT31;54672;46.096;14.470;2023-04-01T02:41:16;5.89;98.61
67868;SHT31;54672;46.096;14.470;2023-04-01T02:43:41;5.89;98.60
67868;SHT31;54672;46.096;14.470;2023-04-01T02:46:07;5.89;98.69
67868;SHT31;54672;46.096;14.470;2023-04-01T02:48:32;5.88;98.64
67868;SHT31;54672;46.096;14.470;2023-04-01T02:50:58;5.89;98.68
67868;SHT31;54672;46.096;14.470;2023-04-01T02:53:23;5.86;98.69
67868;SHT31;54672;46.096;14.470;2023-04-01T02:55:49;5.86;98.76
67868;SHT31;54672;46.096;14.470;2023-04-01T02:58:17;5.86;98.64
67868;SHT31;54672;46.096;14.470;2023-04-01T03:00:43;5.85;98.64
67868;SHT31;54672;46.096;14.470;2023-04-01T03:03:09;5.81;98.84
67868;SHT31;54672;46.096;14.470;2023-04-01T03:05:35;5.79;98.74
67868;SHT31;54672;46.096;14.470;2023-04-01T03:08:01;5.76;98.84
67868;SHT31;54672;46.096;14.470;2023-04-01T03:10:26;5.74;98.89
67868;SHT31;54672;46.096;14.470;2023-04-01T03:12:52;5.71;98.86
67868;SHT31;54672;46.096;14.470;2023-04-01T03:15:17;5.71;98.82
67868;SHT31;54672;46.096;14.470;2023-04-01T03:17:43;5.66;98.87
67868;SHT31;54672;46.096;14.470;2023-04-01T03:20:09;5.64;99.11
67868;SHT31;54672;46.096;14.470;2023-04-01T03:22:36;5.61;99.11
67868;SHT31;54672;46.096;14.470;2023-04-01T03:25:03;5.58;99.14
67868;SHT31;54672;46.096;14.470;2023-04-01T03:27:32;5.55;99.09
67868;SHT31;54672;46.096;14.470;2023-04-01T03:29:58;5.48;99.05
67868;SHT31;54672;46.096;14.470;2023-04-01T03:32:23;5.37;99.38
67868;SHT31;54672;46.096;14.470;2023-04-01T03:34:49;5.23;99.87
67868;SHT31;54672;46.096;14.470;2023-04-01T03:37:14;5.19;99.99
67868;SHT31;54672;46.096;14.470;2023-04-01T03:39:40;5.22;99.99
67868;SHT31;54672;46.096;14.470;2023-04-01T03:42:05;5.14;99.99
67868;SHT31;54672;46.096;14.470;2023-04-01T03:44:32;5.17;99.92
67868;SHT31;54672;46.096;14.470;2023-04-01T03:46:58;5.12;99.97
67868;SHT31;54672;46.096;14.470;2023-04-01T03:49:23;5.09;99.93
67868;SHT31;54672;46.096;14.470;2023-04-01T03:51:48;5.10;99.87
67868;SHT31;54672;46.096;14.470;2023-04-01T03:54:14;5.09;99.81
67868;SHT31;54672;46.096;14.470;2023-04-01T03:56:40;5.06;99.75
67868;SHT31;54672;46.096;14.470;2023-04-01T03:59:07;5.00;99.82
67868;SHT31;54672;46.096;14.470;2023-04-01T04:01:33;5.01;99.84
67868;SHT31;54672;46.096;14.470;2023-04-01T04:03:58;4.97;99.82
67868;SHT31;54672;46.096;14.470;2023-04-01T04:06:25;4.96;99.86
67868;SHT31;54672;46.096;14.470;2023-04-01T04:08:51;5.01;99.99
67868;SHT31;54672;46.096;14.470;2023-04-01T04:11:17;5.03;99.80
67868;SHT31;54672;46.096;14.470;2023-04-01T04:13:43;5.03;99.86
67868;SHT31;54672;46.096;14.470;2023-04-01T04:16:09;4.99;99.81
67868;SHT31;54672;46.096;14.470;2023-04-01T04:18:35;4.94;99.82
67868;SHT31;54672;46.096;14.470;2023-04-01T04:21:01;4.89;99.99
67868;SHT31;54672;46.096;14.470;2023-04-01T04:23:26;4.83;99.99
67868;SHT31;54672;46.096;14.470;2023-04-01T04:26:08;4.90;99.99
67868;SHT31;54672;46.096;14.470;2023-04-01T04:28:34;4.96;99.99
67868;SHT31;54672;46.096;14.470;2023-04-01T04:31:00;5.00;99.99
67868;SHT31;54672;46.096;14.470;2023-04-01T04:33:26;5.06;99.99
67868;SHT31;54672;46.096;14.470;2023-04-01T04:35:55;5.09;99.99
67868;SHT31;54672;46.096;14.470;2023-04-01T04:38:20;5.09;99.99
67868;SHT31;54672;46.096;14.470;2023-04-01T04:40:46;5.03;99.99
67868;SHT31;54672;46.096;14.470;2023-04-01T04:43:13;5.06;99.96
67868;SHT31;54672;46.096;14.470;2023-04-01T04:45:39;5.04;99.74
67868;SHT31;54672;46.096;14.470;2023-04-01T04:48:07;4.99;99.75
67868;SHT31;54672;46.096;14.470;2023-04-01T04:50:33;4.96;99.82
67868;SHT31;54672;46.096;14.470;2023-04-01T04:52:58;4.94;99.81
67868;SHT31;54672;46.096;14.470;2023-04-01T04:55:24;4.89;99.88
67868;SHT31;54672;46.096;14.470;2023-04-01T04:57:49;4.82;99.92
67868;SHT31;54672;46.096;14.470;2023-04-01T05:00:15;4.86;99.93
67868;SHT31;54672;46.096;14.470;2023-04-01T05:02:40;4.90;99.98
67868;SHT31;54672;46.096;14.470;2023-04-01T05:05:06;4.90;99.88
67868;SHT31;54672;46.096;14.470;2023-04-01T05:07:33;4.99;99.80
67868;SHT31;54672;46.096;14.470;2023-04-01T05:09:58;5.00;99.74
67868;SHT31;54672;46.096;14.470;2023-04-01T05:12:24;5.07;99.63
67868;SHT31;54672;46.096;14.470;2023-04-01T05:14:50;5.03;99.39
67868;SHT31;54672;46.096;14.470;2023-04-01T05:17:15;5.03;99.27
67868;SHT31;54672;46.096;14.470;2023-04-01T05:19:40;4.92;98.75
67868;SHT31;54672;46.096;14.470;2023-04-01T05:22:06;4.93;98.85
67868;SHT31;54672;46.096;14.470;2023-04-01T05:24:32;4.93;98.84
67868;SHT31;54672;46.096;14.470;2023-04-01T05:26:58;4.99;98.94
67868;SHT31;54672;46.096;14.470;2023-04-01T05:29:25;5.01;98.93
67868;SHT31;54672;46.096;14.470;2023-04-01T05:31:50;5.09;98.95
67868;SHT31;54672;46.096;14.470;2023-04-01T05:34:16;5.23;98.79
67868;SHT31;54672;46.096;14.470;2023-04-01T05:36:43;5.40;98.44
67868;SHT31;54672;46.096;14.470;2023-04-01T05:39:09;5.85;97.94
67868;SHT31;54672;46.096;14.470;2023-04-01T05:41:35;7.12;95.68
67868;SHT31;54672;46.096;14.470;2023-04-01T05:44:01;8.32;93.37
67868;SHT31;54672;46.096;14.470;2023-04-01T05:46:27;9.24;89.37
67868;SHT31;54672;46.096;14.470;2023-04-01T05:48:52;10.12;86.40
67868;SHT31;54672;46.096;14.470;2023-04-01T05:51:18;9.89;84.50
67868;SHT31;54672;46.096;14.470;2023-04-01T05:53:43;11.47;78.52
67868;SHT31;54672;46.096;14.470;2023-04-01T05:56:09;12.28;74.63
67868;SHT31;54672;46.096;14.470;2023-04-01T05:58:36;12.24;73.45
67868;SHT31;54672;46.096;14.470;2023-04-01T06:01:04;12.83;71.78
67868;SHT31;54672;46.096;14.470;2023-04-01T06:03:30;12.17;72.33
67868;SHT31;54672;46.096;14.470;2023-04-01T06:05:55;11.81;75.01
67868;SHT31;54672;46.096;14.470;2023-04-01T06:08:21;12.02;75.63
67868;SHT31;54672;46.096;14.470;2023-04-01T06:11:42;12.42;73.96
67868;SHT31;54672;46.096;14.470;2023-04-01T06:14:11;12.04;75.56
67868;SHT31;54672;46.096;14.470;2023-04-01T06:54:52;8.01;90.52
67868;SHT31;54672;46.096;14.470;2023-04-01T06:57:34;7.18;91.79
67868;SHT31;54672;46.096;14.470;2023-04-01T07:00:13;7.11;92.73
67868;SHT31;54672;46.096;14.470;2023-04-01T07:02:48;6.98;92.90
67868;SHT31;54672;46.096;14.470;2023-04-01T07:05:19;6.98;93.09
67868;SHT31;54672;46.096;14.470;2023-04-01T07:07:53;7.22;92.30
67868;SHT31;54672;46.096;14.470;2023-04-01T07:10:35;8.07;90.43
67868;SHT31;54672;46.096;14.470;2023-04-01T07:13:18;11.05;84.35
67868;SHT31;54672;46.096;14.470;2023-04-01T07:15:53;13.53;74.54
67868;SHT31;54672;46.096;14.470;2023-04-01T07:18:30;15.42;67.96
67868;SHT31;54672;46.096;14.470;2023-04-01T07:20:58;16.35;64.34
67868;SHT31;54672;46.096;14.470;2023-04-01T07:23:39;17.84;60.87
67868;SHT31;54672;46.096;14.470;2023-04-01T07:26:23;17.12;60.07
67868;SHT31;54672;46.096;14.470;2023-04-01T07:28:51;15.73;63.90
67868;SHT31;54672;46.096;14.470;2023-04-01T07:37:22;13.68;71.71
67868;SHT31;54672;46.096;14.470;2023-04-01T07:45:31;10.30;82.13
67868;SHT31;54672;46.096;14.470;2023-04-01T07:50:54;10.47;82.10
67868;SHT31;54672;46.096;14.470;2023-04-01T07:53:34;10.63;82.08
67868;SHT31;54672;46.096;14.470;2023-04-01T07:56:12;10.96;82.40
67868;SHT31;54672;46.096;14.470;2023-04-01T08:02:11;10.43;84.10
67868;SHT31;54672;46.096;14.470;2023-04-01T08:10:12;10.69;83.46
67868;SHT31;54672;46.096;14.470;2023-04-01T08:12:57;10.84;82.15
67868;SHT31;54672;46.096;14.470;2023-04-01T08:15:38;11.62;80.50
67868;SHT31;54672;46.096;14.470;2023-04-01T08:21:02;11.77;79.45
67868;SHT31;54672;46.096;14.470;2023-04-01T08:23:36;11.70;78.85
67868;SHT31;54672;46.096;14.470;2023-04-01T08:26:18;11.84;80.21
67868;SHT31;54672;46.096;14.470;2023-04-01T08:29:02;12.13;77.39
67868;SHT31;54672;46.096;14.470;2023-04-01T08:34:20;12.73;76.15
67868;SHT31;54672;46.096;14.470;2023-04-01T08:36:53;12.96;75.02
67868;SHT31;54672;46.096;14.470;2023-04-01T08:39:29;13.69;73.35
67868;SHT31;54672;46.096;14.470;2023-04-01T08:56:23;13.55;73.52
67868;SHT31;54672;46.096;14.470;2023-04-01T09:02:15;13.06;73.60
67868;SHT31;54672;46.096;14.470;2023-04-01T09:05:14;12.92;75.03
67868;SHT31;54672;46.096;14.470;2023-04-01T09:10:34;13.28;74.15
67868;SHT31;54672;46.096;14.470;2023-04-01T09:13:14;13.23;74.29
67868;SHT31;54672;46.096;14.470;2023-04-01T09:27:13;13.03;73.71
67868;SHT31;54672;46.096;14.470;2023-04-01T09:38:11;13.24;74.00
67868;SHT31;54672;46.096;14.470;2023-04-01T09:43:24;12.82;74.85
67868;SHT31;54672;46.096;14.470;2023-04-01T09:51:26;12.80;76.25
67868;SHT31;54672;46.096;14.470;2023-04-01T09:59:20;12.48;76.89
67868;SHT31;54672;46.096;14.470;2023-04-01T10:11:21;12.56;75.77
67868;SHT31;54672;46.096;14.470;2023-04-01T10:44:45;12.70;78.43
67868;SHT31;54672;46.096;14.470;2023-04-01T10:47:39;13.04;77.98
67868;SHT31;54672;46.096;14.470;2023-04-01T10:50:22;13.35;76.09
67868;SHT31;54672;46.096;14.470;2023-04-01T10:55:48;13.61;74.65
67868;SHT31;54672;46.096;14.470;2023-04-01T11:20:13;14.26;73.55
67868;SHT31;54672;46.096;14.470;2023-04-01T11:34:28;13.93;75.81
67868;SHT31;54672;46.096;14.470;2023-04-01T11:42:51;13.78;76.57
67868;SHT31;54672;46.096;14.470;2023-04-01T12:02:48;14.27;72.64
67868;SHT31;54672;46.096;14.470;2023-04-01T12:10:43;14.59;69.17
67868;SHT31;54672;46.096;14.470;2023-04-01T12:18:59;14.83;67.65
67868;SHT31;54672;46.096;14.470;2023-04-01T12:21:38;14.56;66.36
67868;SHT31;54672;46.096;14.470;2023-04-01T12:49:05;15.62;61.58
67868;SHT31;54672;46.096;14.470;2023-04-01T12:57:42;15.36;61.36
67868;SHT31;54672;46.096;14.470;2023-04-01T13:03:02;15.31;61.60
67868;SHT31;54672;46.096;14.470;2023-04-01T13:08:21;15.36;62.87
67868;SHT31;54672;46.096;14.470;2023-04-01T13:11:06;15.29;62.73
67868;SHT31;54672;46.096;14.470;2023-04-01T13:16:19;15.36;62.80
67868;SHT31;54672;46.096;14.470;2023-04-01T13:24:11;15.01;69.50
67868;SHT31;54672;46.096;14.470;2023-04-01T13:40:45;12.20;85.75
67868;SHT31;54672;46.096;14.470;2023-04-01T13:43:20;11.84;86.85
67868;SHT31;54672;46.096;14.470;2023-04-01T13:59:13;12.15;87.24
67868;SHT31;54672;46.096;14.470;2023-04-01T14:04:46;12.20;88.48
67868;SHT31;54672;46.096;14.470;2023-04-01T14:07:36;12.28;88.79
67868;SHT31;54672;46.096;14.470;2023-04-01T14:10:12;12.32;88.98
67868;SHT31;54672;46.096;14.470;2023-04-01T14:12:50;12.25;89.93
67868;SHT31;54672;46.096;14.470;2023-04-01T14:15:41;12.05;89.20
67868;SHT31;54672;46.096;14.470;2023-04-01T14:33:05;12.62;81.61
67868;SHT31;54672;46.096;14.470;2023-04-01T14:35:57;12.76;82.24
67868;SHT31;54672;46.096;14.470;2023-04-01T14:41:26;12.97;84.44
67868;SHT31;54672;46.096;14.470;2023-04-01T14:44:24;13.06;79.02
67868;SHT31;54672;46.096;14.470;2023-04-01T14:47:23;13.27;77.96
67868;SHT31;54672;46.096;14.470;2023-04-01T14:52:43;13.54;81.40
67868;SHT31;54672;46.096;14.470;2023-04-01T14:55:32;13.65;83.87
67868;SHT31;54672;46.096;14.470;2023-04-01T14:58:17;13.76;84.84
67868;SHT31;54672;46.096;14.470;2023-04-01T15:12:30;14.40;86.58
67868;SHT31;54672;46.096;14.470;2023-04-01T15:18:05;14.37;83.52
67868;SHT31;54672;46.096;14.470;2023-04-01T15:23:43;14.38;77.38
67868;SHT31;54672;46.096;14.470;2023-04-01T15:26:35;14.44;77.65
67868;SHT31;54672;46.096;14.470;2023-04-01T15:31:52;14.63;80.09
67868;SHT31;54672;46.096;14.470;2023-04-01T15:51:09;14.57;80.15
67868;SHT31;54672;46.096;14.470;2023-04-01T16:05:33;14.33;77.09
67868;SHT31;54672;46.096;14.470;2023-04-01T16:13:48;14.17;75.34
67868;SHT31;54672;46.096;14.470;2023-04-01T16:22:29;14.32;70.62
67868;SHT31;54672;46.096;14.470;2023-04-01T16:30:37;14.46;73.27
67868;SHT31;54672;46.096;14.470;2023-04-01T16:33:19;14.38;68.89
67868;SHT31;54672;46.096;14.470;2023-04-01T16:36:24;14.46;67.16
67868;SHT31;54672;46.096;14.470;2023-04-01T16:41:48;14.41;68.70
67868;SHT31;54672;46.096;14.470;2023-04-01T16:44:50;14.19;67.09
67868;SHT31;54672;46.096;14.470;2023-04-01T16:47:26;14.29;62.31
67868;SHT31;54672;46.096;14.470;2023-04-01T16:49:59;14.43;60.22
67868;SHT31;54672;46.096;14.470;2023-04-01T16:55:04;14.46;59.67
67868;SHT31;54672;46.096;14.470;2023-04-01T16:57:47;14.44;58.54
67868;SHT31;54672;46.096;14.470;2023-04-01T17:00:48;14.36;58.50
67868;SHT31;54672;46.096;14.470;2023-04-01T17:03:27;14.32;59.59
67868;SHT31;54672;46.096;14.470;2023-04-01T17:08:55;14.23;59.10
67868;SHT31;54672;46.096;14.470;2023-04-01T17:11:35;14.16;60.08
67868;SHT31;54672;46.096;14.470;2023-04-01T17:22:44;13.93;61.38
67868;SHT31;54672;46.096;14.470;2023-04-01T17:27:58;13.71;61.89
67868;SHT31;54672;46.096;14.470;2023-04-01T17:30:35;13.58;63.65
67868;SHT31;54672;46.096;14.470;2023-04-01T17:33:16;13.38;64.41
67868;SHT31;54672;46.096;14.470;2023-04-01T17:38:57;12.17;71.24
67868;SHT31;54672;46.096;14.470;2023-04-01T17:41:40;12.01;71.64
67868;SHT31;54672;46.096;14.470;2023-04-01T17:44:12;11.90;72.30
67868;SHT31;54672;46.096;14.470;2023-04-01T17:52:38;11.54;75.25
67868;SHT31;54672;46.096;14.470;2023-04-01T17:55:31;11.60;74.61
67868;SHT31;54672;46.096;14.470;2023-04-01T17:58:19;11.53;75.15
67868;SHT31;54672;46.096;14.470;2023-04-01T18:01:08;11.43;75.98
67868;SHT31;54672;46.096;14.470;2023-04-01T18:09:08;11.04;78.07
67868;SHT31;54672;46.096;14.470;2023-04-01T18:11:49;10.92;78.91
67868;SHT31;54672;46.096;14.470;2023-04-01T18:14:29;10.79;79.73
67868;SHT31;54672;46.096;14.470;2023-04-01T18:22:43;10.20;81.90
67868;SHT31;54672;46.096;14.470;2023-04-01T18:30:34;9.92;83.89
67868;SHT31;54672;46.096;14.470;2023-04-01T18:33:19;9.87;83.54
67868;SHT31;54672;46.096;14.470;2023-04-01T18:36:09;9.83;83.01
67868;SHT31;54672;46.096;14.470;2023-04-01T18:38:49;9.82;83.05
67868;SHT31;54672;46.096;14.470;2023-04-01T18:49:39;9.69;82.35
67868;SHT31;54672;46.096;14.470;2023-04-01T18:52:18;9.63;82.63
67868;SHT31;54672;46.096;14.470;2023-04-01T18:57:46;9.56;83.38
67868;SHT31;54672;46.096;14.470;2023-04-01T19:00:13;9.45;83.79
67868;SHT31;54672;46.096;14.470;2023-04-01T19:02:45;9.39;84.63
67868;SHT31;54672;46.096;14.470;2023-04-01T19:05:22;9.31;84.91
67868;SHT31;54672;46.096;14.470;2023-04-01T19:07:56;9.24;84.53
67868;SHT31;54672;46.096;14.470;2023-04-01T19:10:41;9.13;84.87
67868;SHT31;54672;46.096;14.470;2023-04-01T19:18:47;8.94;86.21
67868;SHT31;54672;46.096;14.470;2023-04-01T19:21:21;8.93;86.67
67868;SHT31;54672;46.096;14.470;2023-04-01T19:24:12;8.88;87.71
67868;SHT31;54672;46.096;14.470;2023-04-01T19:26:45;8.76;87.86
67868;SHT31;54672;46.096;14.470;2023-04-01T19:37:45;8.46;88.69
67868;SHT31;54672;46.096;14.470;2023-04-01T19:46:14;8.36;89.46
67868;SHT31;54672;46.096;14.470;2023-04-01T19:54:24;8.14;90.29
67868;SHT31;54672;46.096;14.470;2023-04-01T19:57:09;8.11;90.63
67868;SHT31;54672;46.096;14.470;2023-04-01T19:59:45;8.11;90.76
67868;SHT31;54672;46.096;14.470;2023-04-01T20:02:37;8.09;90.92
67868;SHT31;54672;46.096;14.470;2023-04-01T20:08:16;8.02;91.18
67868;SHT31;54672;46.096;14.470;2023-04-01T20:10:46;8.08;91.49
67868;SHT31;54672;46.096;14.470;2023-04-01T20:13:25;7.88;92.01
67868;SHT31;54672;46.096;14.470;2023-04-01T20:16:09;7.90;91.79
67868;SHT31;54672;46.096;14.470;2023-04-01T20:21:37;7.91;90.58
67868;SHT31;54672;46.096;14.470;2023-04-01T20:24:14;8.04;89.80
67868;SHT31;54672;46.096;14.470;2023-04-01T20:26:47;8.07;89.79
67868;SHT31;54672;46.096;14.470;2023-04-01T20:37:44;8.08;89.36
67868;SHT31;54672;46.096;14.470;2023-04-01T20:40:32;8.21;88.80
67868;SHT31;54672;46.096;14.470;2023-04-01T20:48:55;8.21;88.58
67868;SHT31;54672;46.096;14.470;2023-04-01T20:51:26;8.26;88.92
67868;SHT31;54672;46.096;14.470;2023-04-01T20:57:02;8.18;89.41
67868;SHT31;54672;46.096;14.470;2023-04-01T20:59:56;8.07;90.06
67868;SHT31;54672;46.096;14.470;2023-04-01T21:02:56;7.97;89.91
67868;SHT31;54672;46.096;14.470;2023-04-01T21:08:14;7.99;89.77
67868;SHT31;54672;46.096;14.470;2023-04-01T21:10:43;7.93;90.57
67868;SHT31;54672;46.096;14.470;2023-04-01T21:16:58;7.78;91.44
67868;SHT31;54672;46.096;14.470;2023-04-01T21:24:41;7.84;89.22
67868;SHT31;54672;46.096;14.470;2023-04-01T21:27:22;7.88;88.99
67868;SHT31;54672;46.096;14.470;2023-04-01T21:29:55;7.83;89.18
67868;SHT31;54672;46.096;14.470;2023-04-01T21:45:57;7.76;88.50
67868;SHT31;54672;46.096;14.470;2023-04-01T21:54:13;8.09;86.58
67868;SHT31;54672;46.096;14.470;2023-04-01T22:02:41;7.98;87.11
67868;SHT31;54672;46.096;14.470;2023-04-01T22:08:20;7.80;87.84
67868;SHT31;54672;46.096;14.470;2023-04-01T22:11:07;7.67;88.30
67868;SHT31;54672;46.096;14.470;2023-04-01T22:13:50;7.63;88.86
67868;SHT31;54672;46.096;14.470;2023-04-01T22:16:47;7.67;88.66
67868;SHT31;54672;46.096;14.470;2023-04-01T22:27:50;7.53;88.80
67868;SHT31;54672;46.096;14.470;2023-04-01T22:33:05;7.45;89.68
67868;SHT31;54672;46.096;14.470;2023-04-01T22:43:42;7.20;91.17
67868;SHT31;54672;46.096;14.470;2023-04-01T22:49:06;7.15;91.19
67868;SHT31;54672;46.096;14.470;2023-04-01T22:54:30;7.14;90.96
67868;SHT31;54672;46.096;14.470;2023-04-01T22:57:11;6.99;91.54
67868;SHT31;54672;46.096;14.470;2023-04-01T23:02:19;6.83;92.07
67868;SHT31;54672;46.096;14.470;2023-04-01T23:04:51;6.77;92.11
67868;SHT31;54672;46.096;14.470;2023-04-01T23:10:04;6.84;91.12
67868;SHT31;54672;46.096;14.470;2023-04-01T23:12:32;7.37;88.17
67868;SHT31;54672;46.096;14.470;2023-04-01T23:15:00;7.97;84.21
67868;SHT31;54672;46.096;14.470;2023-04-01T23:18:27;8.04;83.95
67868;SHT31;54672;46.096;14.470;2023-04-01T23:20:29;7.87;85.53
67868;SHT31;54672;46.096;14.470;2023-04-01T23:28:51;7.50;87.76
67868;SHT31;54672;46.096;14.470;2023-04-01T23:31:30;7.22;88.89
67868;SHT31;54672;46.096;14.470;2023-04-01T23:33:59;6.87;90.71
67868;SHT31;54672;46.096;14.470;2023-04-01T23:36:27;6.64;91.67
67868;SHT31;54672;46.096;14.470;2023-04-01T23:38:53;6.51;92.28
67868;SHT31;54672;46.096;14.470;2023-04-01T23:44:09;6.43;92.28
67868;SHT31;54672;46.096;14.470;2023-04-01T23:46:37;6.44;92.30
67868;SHT31;54672;46.096;14.470;2023-04-01T23:49:11;6.48;92.42
67868;SHT31;54672;46.096;14.470;2023-04-01T23:51:49;6.43;92.89
67868;SHT31;54672;46.096;14.470;2023-04-01T23:54:42;6.30;93.44
67868;SHT31;54672;46.096;14.470;2023-04-01T23:57:13;6.19;94.27
67868;SHT31;54672;46.096;14.470;2023-04-01T23:59:39;6.05;95.25
